PRIVATE WETTERSTATION BILLIGHEIM-ALLFELD                       ZURCK
Wetterdaten: Mittwoch, 18.05.2022
Datum Zeit Temp. A. Temp. A. min Temp. A. max Feuchte A. Luftdruck Regen Wind Richtung Richtung Sonnenschein ET Solar Taupunkt Windchill Windben Empfang
18.05.2022 00:00 14,6 C 14,6 C 14,8 C 85 % 1019,5 hPa 0,0 l/m 0,0 km/h (0 Bft) NW 315 0 min 0,025 mm 0 W/m 12,1 C 14,6 C 1,6 km/h (1 Bft) 100 %
18.05.2022 00:10 14,4 C 14,4 C 14,6 C 85 % 1019,5 hPa 0,0 l/m 0,0 km/h (0 Bft) N 0 0 min 0,000 mm 0 W/m 11,9 C 14,4 C 0,0 km/h (0 Bft) 100 %
18.05.2022 00:20 14,2 C 14,2 C 14,4 C 86 % 1019,6 hPa 0,0 l/m 0,0 km/h (0 Bft) N 0 0 min 0,000 mm 0 W/m 11,9 C 14,2 C 0,0 km/h (0 Bft) 100 %
18.05.2022 00:30 14,0 C 14,0 C 14,2 C 87 % 1019,6 hPa 0,0 l/m 0,0 km/h (0 Bft) N 0 0 min 0,000 mm 0 W/m 11,9 C 14,0 C 0,0 km/h (0 Bft) 100 %
18.05.2022 00:40 13,7 C 13,7 C 14,0 C 87 % 1019,7 hPa 0,0 l/m 0,0 km/h (0 Bft) NW 315 0 min 0,000 mm 0 W/m 11,6 C 13,7 C 1,6 km/h (1 Bft) 100 %
18.05.2022 00:50 13,6 C 13,6 C 13,7 C 88 % 1019,7 hPa 0,0 l/m 0,0 km/h (0 Bft) NW 315 0 min 0,000 mm 0 W/m 11,6 C 13,6 C 6,4 km/h (2 Bft) 100 %
18.05.2022 01:00 13,6 C 13,6 C 13,6 C 88 % 1019,7 hPa 0,0 l/m 0,0 km/h (0 Bft) N 0 0 min 0,000 mm 0 W/m 11,6 C 13,6 C 0,0 km/h (0 Bft) 89 %
18.05.2022 01:10 13,4 C 13,4 C 13,6 C 88 % 1019,8 hPa 0,0 l/m 0,0 km/h (0 Bft) NW 315 0 min 0,000 mm 0 W/m 11,5 C 13,4 C 1,6 km/h (1 Bft) 100 %
18.05.2022 01:20 13,3 C 13,3 C 13,4 C 88 % 1019,7 hPa 0,0 l/m 0,0 km/h (0 Bft) N 0 0 min 0,000 mm 0 W/m 11,4 C 13,3 C 0,0 km/h (0 Bft) 100 %
18.05.2022 01:30 13,1 C 13,1 C 13,3 C 88 % 1019,7 hPa 0,0 l/m 0,0 km/h (0 Bft) N 0 0 min 0,000 mm 0 W/m 11,2 C 13,1 C 0,0 km/h (0 Bft) 100 %
18.05.2022 01:40 13,0 C 13,0 C 13,1 C 89 % 1019,9 hPa 0,0 l/m 1,6 km/h (1 Bft) NW 315 0 min 0,000 mm 0 W/m 11,2 C 13,0 C 4,8 km/h (1 Bft) 100 %
18.05.2022 01:50 12,8 C 12,8 C 13,0 C 89 % 1019,9 hPa 0,0 l/m 3,2 km/h (1 Bft) NW 315 0 min 0,000 mm 0 W/m 11,0 C 12,8 C 4,8 km/h (1 Bft) 100 %
18.05.2022 02:00 12,7 C 12,7 C 12,8 C 89 % 1019,9 hPa 0,0 l/m 0,0 km/h (0 Bft) NW 315 0 min 0,000 mm 0 W/m 10,9 C 12,7 C 3,2 km/h (1 Bft) 100 %
18.05.2022 02:10 12,6 C 12,6 C 12,7 C 90 % 1019,9 hPa 0,0 l/m 0,0 km/h (0 Bft) N 0 0 min 0,000 mm 0 W/m 11,0 C 12,6 C 0,0 km/h (0 Bft) 98 %
18.05.2022 02:20 12,5 C 12,5 C 12,6 C 90 % 1020,0 hPa 0,0 l/m 0,0 km/h (0 Bft) N 0 0 min 0,000 mm 0 W/m 10,9 C 12,5 C 0,0 km/h (0 Bft) 99 %
18.05.2022 02:30 12,4 C 12,4 C 12,5 C 90 % 1020,1 hPa 0,0 l/m 0,0 km/h (0 Bft) NW 315 0 min 0,000 mm 0 W/m 10,8 C 12,4 C 4,8 km/h (1 Bft) 100 %
18.05.2022 02:40 12,4 C 12,4 C 12,4 C 90 % 1020,1 hPa 0,0 l/m 3,2 km/h (1 Bft) NW 315 0 min 0,000 mm 0 W/m 10,8 C 12,4 C 4,8 km/h (1 Bft) 98 %
18.05.2022 02:50 12,4 C 12,4 C 12,4 C 90 % 1020,1 hPa 0,0 l/m 1,6 km/h (1 Bft) NW 315 0 min 0,000 mm 0 W/m 10,8 C 12,4 C 4,8 km/h (1 Bft) 97 %
18.05.2022 03:00 12,4 C 12,4 C 12,4 C 90 % 1020,0 hPa 0,0 l/m 1,6 km/h (1 Bft) NW 315 0 min 0,000 mm 0 W/m 10,8 C 12,4 C 4,8 km/h (1 Bft) 96 %
18.05.2022 03:10 12,4 C 12,4 C 12,4 C 90 % 1019,9 hPa 0,0 l/m 3,2 km/h (1 Bft) NW 315 0 min 0,000 mm 0 W/m 10,8 C 12,4 C 4,8 km/h (1 Bft) 98 %
18.05.2022 03:20 12,3 C 12,3 C 12,4 C 90 % 1020,1 hPa 0,0 l/m 3,2 km/h (1 Bft) NW 315 0 min 0,000 mm 0 W/m 10,7 C 12,3 C 6,4 km/h (2 Bft) 97 %
18.05.2022 03:30 12,2 C 12,2 C 12,3 C 90 % 1020,1 hPa 0,0 l/m 3,2 km/h (1 Bft) NW 315 0 min 0,000 mm 0 W/m 10,6 C 12,2 C 4,8 km/h (1 Bft) 98 %
18.05.2022 03:40 12,1 C 12,1 C 12,2 C 90 % 1020,3 hPa 0,0 l/m 1,6 km/h (1 Bft) NW 315 0 min 0,000 mm 0 W/m 10,5 C 12,1 C 3,2 km/h (1 Bft) 97 %
18.05.2022 03:50 12,0 C 12,0 C 12,1 C 90 % 1020,3 hPa 0,0 l/m 0,0 km/h (0 Bft) N 0 0 min 0,000 mm 0 W/m 10,4 C 12,0 C 0,0 km/h (0 Bft) 98 %
18.05.2022 04:00 11,9 C 11,9 C 12,0 C 91 % 1020,1 hPa 0,0 l/m 0,0 km/h (0 Bft) NW 315 0 min 0,000 mm 0 W/m 10,5 C 11,9 C 1,6 km/h (1 Bft) 98 %
18.05.2022 04:10 11,9 C 11,9 C 11,9 C 91 % 1020,0 hPa 0,0 l/m 0,0 km/h (0 Bft) N 0 0 min 0,000 mm 0 W/m 10,5 C 11,9 C 0,0 km/h (0 Bft) 97 %
18.05.2022 04:20 11,8 C 11,8 C 11,9 C 91 % 1020,1 hPa 0,0 l/m 0,0 km/h (0 Bft) N 0 0 min 0,000 mm 0 W/m 10,4 C 11,8 C 0,0 km/h (0 Bft) 97 %
18.05.2022 04:30 11,8 C 11,8 C 11,8 C 91 % 1020,2 hPa 0,0 l/m 0,0 km/h (0 Bft) N 0 0 min 0,000 mm 0 W/m 10,4 C 11,8 C 0,0 km/h (0 Bft) 97 %
18.05.2022 04:40 11,7 C 11,7 C 11,8 C 91 % 1020,3 hPa 0,0 l/m 0,0 km/h (0 Bft) NW 315 0 min 0,000 mm 0 W/m 10,3 C 11,7 C 1,6 km/h (1 Bft) 98 %
18.05.2022 04:50 11,7 C 11,7 C 11,7 C 91 % 1020,3 hPa 0,0 l/m 1,6 km/h (1 Bft) NW 315 0 min 0,000 mm 0 W/m 10,3 C 11,7 C 6,4 km/h (2 Bft) 87 %
18.05.2022 05:00 11,6 C 11,6 C 11,7 C 91 % 1020,3 hPa 0,0 l/m 1,6 km/h (1 Bft) NW 315 0 min 0,000 mm 0 W/m 10,2 C 11,6 C 4,8 km/h (1 Bft) 98 %
18.05.2022 05:10 11,5 C 11,5 C 11,6 C 91 % 1020,3 hPa 0,0 l/m 0,0 km/h (0 Bft) NW 315 0 min 0,000 mm 0 W/m 10,1 C 11,5 C 1,6 km/h (1 Bft) 98 %
18.05.2022 05:20 11,5 C 11,5 C 11,6 C 91 % 1020,3 hPa 0,0 l/m 3,2 km/h (1 Bft) NW 315 0 min 0,000 mm 0 W/m 10,1 C 11,5 C 6,4 km/h (2 Bft) 98 %
18.05.2022 05:30 11,4 C 11,4 C 11,6 C 91 % 1020,5 hPa 0,0 l/m 3,2 km/h (1 Bft) NW 315 0 min 0,000 mm 0 W/m 10,0 C 11,4 C 8,0 km/h (2 Bft) 98 %
18.05.2022 05:40 11,3 C 11,3 C 11,4 C 91 % 1020,5 hPa 0,0 l/m 1,6 km/h (1 Bft) N-NW 337 0 min 0,000 mm 0 W/m 9,9 C 11,3 C 4,8 km/h (1 Bft) 97 %
18.05.2022 05:50 11,3 C 11,3 C 11,3 C 91 % 1020,5 hPa 0,0 l/m 0,0 km/h (0 Bft) N 0 0 min 0,000 mm 5 W/m 9,9 C 11,3 C 0,0 km/h (0 Bft) 97 %
18.05.2022 06:00 11,2 C 11,2 C 11,3 C 91 % 1020,6 hPa 0,0 l/m 0,0 km/h (0 Bft) N 0 0 min 0,000 mm 9 W/m 9,8 C 11,2 C 0,0 km/h (0 Bft) 97 %
18.05.2022 06:10 11,2 C 11,2 C 11,2 C 91 % 1020,6 hPa 0,0 l/m 1,6 km/h (1 Bft) N-NW 337 0 min 0,000 mm 12 W/m 9,8 C 11,2 C 6,4 km/h (2 Bft) 98 %
18.05.2022 06:20 11,3 C 11,1 C 11,3 C 90 % 1020,7 hPa 0,0 l/m 1,6 km/h (1 Bft) N-NW 337 0 min 0,000 mm 14 W/m 9,7 C 11,3 C 6,4 km/h (2 Bft) 98 %
18.05.2022 06:30 11,3 C 11,3 C 11,3 C 91 % 1020,8 hPa 0,0 l/m 0,0 km/h (0 Bft) N 0 0 min 0,000 mm 16 W/m 9,9 C 11,3 C 0,0 km/h (0 Bft) 98 %
18.05.2022 06:40 11,2 C 11,2 C 11,3 C 91 % 1020,9 hPa 0,0 l/m 0,0 km/h (0 Bft) N 0 0 min 0,000 mm 19 W/m 9,8 C 11,2 C 0,0 km/h (0 Bft) 97 %
18.05.2022 06:50 11,2 C 11,2 C 11,2 C 91 % 1020,9 hPa 0,0 l/m 0,0 km/h (0 Bft) N-NW 337 0 min 0,000 mm 21 W/m 9,8 C 11,2 C 1,6 km/h (1 Bft) 96 %
18.05.2022 07:00 11,2 C 11,1 C 11,2 C 91 % 1020,9 hPa 0,0 l/m 0,0 km/h (0 Bft) N 0 0 min 0,000 mm 23 W/m 9,8 C 11,2 C 0,0 km/h (0 Bft) 98 %
18.05.2022 07:10 11,2 C 11,2 C 11,2 C 91 % 1021,1 hPa 0,0 l/m 0,0 km/h (0 Bft) N 0 0 min 0,000 mm 28 W/m 9,8 C 11,2 C 0,0 km/h (0 Bft) 97 %
18.05.2022 07:20 11,3 C 11,2 C 11,3 C 91 % 1021,2 hPa 0,0 l/m 3,2 km/h (1 Bft) N-NW 337 0 min 0,000 mm 32 W/m 9,9 C 11,3 C 4,8 km/h (1 Bft) 98 %
18.05.2022 07:30 11,4 C 11,2 C 11,4 C 90 % 1021,4 hPa 0,0 l/m 3,2 km/h (1 Bft) N-NW 337 0 min 0,000 mm 33 W/m 9,8 C 11,4 C 4,8 km/h (1 Bft) 96 %
18.05.2022 07:40 11,6 C 11,3 C 11,6 C 91 % 1021,4 hPa 0,0 l/m 1,6 km/h (1 Bft) N-NW 337 0 min 0,000 mm 37 W/m 10,2 C 11,6 C 4,8 km/h (1 Bft) 98 %
18.05.2022 07:50 11,7 C 11,6 C 11,7 C 91 % 1021,4 hPa 0,0 l/m 0,0 km/h (0 Bft) N 0 0 min 0,000 mm 39 W/m 10,3 C 11,7 C 0,0 km/h (0 Bft) 99 %
18.05.2022 08:00 12,1 C 11,8 C 12,1 C 90 % 1021,4 hPa 0,0 l/m 0,0 km/h (0 Bft) N 0 0 min 0,025 mm 40 W/m 10,5 C 12,1 C 0,0 km/h (0 Bft) 100 %
18.05.2022 08:10 12,3 C 12,1 C 12,3 C 90 % 1021,5 hPa 0,0 l/m 0,0 km/h (0 Bft) N 0 0 min 0,000 mm 47 W/m 10,7 C 12,3 C 0,0 km/h (0 Bft) 100 %
18.05.2022 08:20 12,9 C 12,4 C 12,9 C 90 % 1021,6 hPa 0,0 l/m 0,0 km/h (0 Bft) N 0 10 min 0,000 mm 294 W/m 11,3 C 12,9 C 0,0 km/h (0 Bft) 99 %
18.05.2022 08:30 13,8 C 12,9 C 13,8 C 90 % 1021,8 hPa 0,0 l/m 0,0 km/h (0 Bft) N 0 10 min 0,000 mm 369 W/m 12,2 C 13,8 C 0,0 km/h (0 Bft) 100 %
18.05.2022 08:40 15,1 C 13,8 C 15,1 C 90 % 1021,8 hPa 0,0 l/m 0,0 km/h (0 Bft) N-NW 337 10 min 0,000 mm 417 W/m 13,5 C 15,1 C 1,6 km/h (1 Bft) 100 %
18.05.2022 08:50 16,5 C 15,1 C 16,5 C 90 % 1021,9 hPa 0,0 l/m 0,0 km/h (0 Bft) N 0 10 min 0,000 mm 445 W/m 14,9 C 16,5 C 0,0 km/h (0 Bft) 100 %
18.05.2022 09:00 17,7 C 16,5 C 17,7 C 84 % 1021,9 hPa 0,0 l/m 0,0 km/h (0 Bft) N 0 10 min 0,152 mm 476 W/m 15,0 C 17,7 C 0,0 km/h (0 Bft) 100 %
18.05.2022 09:10 18,3 C 17,7 C 18,3 C 80 % 1021,8 hPa 0,0 l/m 0,0 km/h (0 Bft) N 0 10 min 0,000 mm 519 W/m 14,8 C 18,3 C 0,0 km/h (0 Bft) 89 %
18.05.2022 09:20 19,0 C 18,3 C 19,0 C 78 % 1021,8 hPa 0,0 l/m 0,0 km/h (0 Bft) N 0 10 min 0,000 mm 540 W/m 15,1 C 19,0 C 0,0 km/h (0 Bft) 100 %
18.05.2022 09:30 19,8 C 19,1 C 19,8 C 75 % 1021,8 hPa 0,0 l/m 0,0 km/h (0 Bft) N 0 10 min 0,000 mm 557 W/m 15,2 C 19,8 C 0,0 km/h (0 Bft) 100 %
18.05.2022 09:40 20,2 C 19,8 C 20,2 C 71 % 1021,8 hPa 0,0 l/m 0,0 km/h (0 Bft) N 0 10 min 0,000 mm 584 W/m 14,8 C 20,2 C 0,0 km/h (0 Bft) 100 %
18.05.2022 09:50 21,0 C 20,2 C 21,0 C 69 % 1021,8 hPa 0,0 l/m 0,0 km/h (0 Bft) N-NW 337 10 min 0,000 mm 610 W/m 15,1 C 21,0 C 3,2 km/h (1 Bft) 99 %
18.05.2022 10:00 21,8 C 21,0 C 21,8 C 64 % 1021,8 hPa 0,0 l/m 0,0 km/h (0 Bft) N-NW 337 10 min 0,330 mm 633 W/m 14,7 C 21,8 C 1,6 km/h (1 Bft) 100 %
18.05.2022 10:10 22,5 C 21,9 C 22,5 C 64 % 1021,8 hPa 0,0 l/m 0,0 km/h (0 Bft) NO 45 10 min 0,000 mm 661 W/m 15,3 C 22,5 C 6,4 km/h (2 Bft) 100 %
18.05.2022 10:20 22,8 C 22,5 C 22,8 C 61 % 1021,8 hPa 0,0 l/m 0,0 km/h (0 Bft) SO 135 10 min 0,000 mm 682 W/m 14,9 C 22,8 C 6,4 km/h (2 Bft) 100 %
18.05.2022 10:30 23,1 C 22,8 C 23,1 C 61 % 1021,8 hPa 0,0 l/m 0,0 km/h (0 Bft) O-SO 112 10 min 0,000 mm 712 W/m 15,2 C 23,1 C 1,6 km/h (1 Bft) 100 %
18.05.2022 10:40 23,3 C 23,1 C 23,3 C 59 % 1021,9 hPa 0,0 l/m 0,0 km/h (0 Bft) SO 135 10 min 0,000 mm 738 W/m 14,8 C 23,3 C 8,0 km/h (2 Bft) 100 %
18.05.2022 10:50 23,7 C 23,3 C 23,7 C 62 % 1021,9 hPa 0,0 l/m 0,0 km/h (0 Bft) S-SW 202 10 min 0,000 mm 756 W/m 16,0 C 23,7 C 6,4 km/h (2 Bft) 100 %
18.05.2022 11:00 24,2 C 23,8 C 24,2 C 59 % 1021,8 hPa 0,0 l/m 0,0 km/h (0 Bft) SO 135 10 min 0,432 mm 775 W/m 15,7 C 24,2 C 8,0 km/h (2 Bft) 100 %
18.05.2022 11:10 24,5 C 24,2 C 24,5 C 59 % 1021,8 hPa 0,0 l/m 0,0 km/h (0 Bft) O-SO 112 10 min 0,000 mm 772 W/m 15,9 C 24,5 C 8,0 km/h (2 Bft) 100 %
18.05.2022 11:20 24,8 C 24,6 C 24,8 C 59 % 1021,7 hPa 0,0 l/m 0,0 km/h (0 Bft) S-SO 157 10 min 0,000 mm 779 W/m 16,2 C 24,8 C 8,0 km/h (2 Bft) 100 %
18.05.2022 11:30 24,7 C 24,7 C 24,8 C 55 % 1021,7 hPa 0,0 l/m 1,6 km/h (1 Bft) SO 135 10 min 0,000 mm 831 W/m 15,0 C 24,7 C 8,0 km/h (2 Bft) 99 %
18.05.2022 11:40 24,8 C 24,7 C 24,8 C 53 % 1021,7 hPa 0,0 l/m 0,0 km/h (0 Bft) SO 135 10 min 0,000 mm 826 W/m 14,6 C 24,8 C 9,7 km/h (2 Bft) 100 %
18.05.2022 11:50 24,9 C 24,7 C 24,9 C 56 % 1021,7 hPa 0,0 l/m 0,0 km/h (0 Bft) S 180 10 min 0,000 mm 821 W/m 15,5 C 24,9 C 8,0 km/h (2 Bft) 100 %
18.05.2022 12:00 25,7 C 24,9 C 25,7 C 54 % 1021,6 hPa 0,0 l/m 0,0 km/h (0 Bft) S-SW 202 10 min 0,483 mm 847 W/m 15,7 C 25,7 C 6,4 km/h (2 Bft) 100 %
18.05.2022 12:10 26,2 C 25,7 C 26,2 C 52 % 1021,5 hPa 0,0 l/m 0,0 km/h (0 Bft) S-SW 202 10 min 0,000 mm 854 W/m 15,6 C 26,2 C 4,8 km/h (1 Bft) 100 %
18.05.2022 12:20 26,0 C 26,0 C 26,2 C 51 % 1021,3 hPa 0,0 l/m 1,6 km/h (1 Bft) S-SW 202 10 min 0,000 mm 874 W/m 15,1 C 26,0 C 14,5 km/h (3 Bft) 100 %
18.05.2022 12:40 26,0 C 26,0 C 26,2 C 51 % 1021,3 hPa 0,0 l/m 1,1 km/h (1 Bft) SO 143 20 min 0,000 mm 705 W/m 15,1 C 26,0 C 9,7 km/h (2 Bft) 97 %
18.05.2022 12:50 26,1 C 26,0 C 26,1 C 50 % 1021,2 hPa 0,0 l/m 2,0 km/h (1 Bft) W-SW 241 10 min 0,000 mm 895 W/m 14,8 C 26,1 C 9,7 km/h (2 Bft) 98 %
18.05.2022 13:00 26,3 C 26,1 C 26,3 C 49 % 1021,3 hPa 0,0 l/m 3,0 km/h (1 Bft) S-SO 156 10 min 0,509 mm 861 W/m 14,7 C 26,3 C 16,1 km/h (3 Bft) 97 %
18.05.2022 13:10 26,4 C 26,3 C 26,4 C 50 % 1021,1 hPa 0,0 l/m 1,1 km/h (1 Bft) SO 146 10 min 0,000 mm 902 W/m 15,1 C 26,4 C 11,3 km/h (2 Bft) 97 %
18.05.2022 13:20 26,5 C 26,4 C 26,5 C 51 % 1021,0 hPa 0,0 l/m 0,5 km/h (0 Bft) SO 138 10 min 0,000 mm 898 W/m 15,5 C 26,5 C 8,0 km/h (2 Bft) 97 %
18.05.2022 13:30 26,7 C 26,5 C 26,8 C 46 % 1020,9 hPa 0,0 l/m 0,1 km/h (0 Bft) O-NO 68 10 min 0,000 mm 911 W/m 14,1 C 26,7 C 3,2 km/h (1 Bft) 97 %
18.05.2022 13:40 26,9 C 26,7 C 26,9 C 50 % 1020,6 hPa 0,0 l/m 0,9 km/h (0 Bft) S-SO 152 10 min 0,000 mm 896 W/m 15,6 C 26,9 C 9,7 km/h (2 Bft) 98 %
18.05.2022 13:50 26,8 C 26,8 C 26,9 C 46 % 1020,7 hPa 0,0 l/m 2,2 km/h (1 Bft) SO 129 10 min 0,000 mm 904 W/m 14,2 C 26,8 C 14,5 km/h (3 Bft) 97 %
18.05.2022 14:00 26,8 C 26,7 C 26,8 C 45 % 1020,6 hPa 0,0 l/m 1,9 km/h (1 Bft) O 96 10 min 0,584 mm 896 W/m 13,9 C 26,8 C 14,5 km/h (3 Bft) 97 %
18.05.2022 14:10 26,9 C 26,8 C 27,0 C 47 % 1020,5 hPa 0,0 l/m 0,3 km/h (0 Bft) S-SO 157 10 min 0,000 mm 392 W/m 14,6 C 26,9 C 6,4 km/h (2 Bft) 97 %
18.05.2022 14:20 26,3 C 26,3 C 26,9 C 45 % 1020,6 hPa 0,0 l/m 2,5 km/h (1 Bft) O-SO 119 10 min 0,000 mm 824 W/m 13,4 C 26,3 C 14,5 km/h (3 Bft) 98 %
18.05.2022 14:30 26,6 C 26,3 C 26,6 C 48 % 1020,5 hPa 0,0 l/m 1,6 km/h (1 Bft) S-SO 153 10 min 0,000 mm 860 W/m 14,7 C 26,6 C 11,3 km/h (2 Bft) 98 %
18.05.2022 14:40 27,1 C 26,6 C 27,1 C 46 % 1020,4 hPa 0,0 l/m 1,9 km/h (1 Bft) S 185 10 min 0,000 mm 851 W/m 14,5 C 27,1 C 11,3 km/h (2 Bft) 97 %
18.05.2022 14:50 27,1 C 27,1 C 27,2 C 45 % 1020,4 hPa 0,0 l/m 2,2 km/h (1 Bft) S-SW 196 10 min 0,000 mm 830 W/m 14,1 C 27,1 C 11,3 km/h (2 Bft) 98 %
18.05.2022 15:00 27,1 C 27,0 C 27,2 C 47 % 1020,4 hPa 0,0 l/m 1,3 km/h (1 Bft) N 11 10 min 0,508 mm 814 W/m 14,8 C 27,1 C 16,1 km/h (3 Bft) 97 %
18.05.2022 15:10 27,2 C 27,1 C 27,2 C 46 % 1020,3 hPa 0,0 l/m 2,9 km/h (1 Bft) S-SO 167 10 min 0,000 mm 810 W/m 14,6 C 27,2 C 17,7 km/h (3 Bft) 97 %
18.05.2022 15:20 27,5 C 27,2 C 27,5 C 44 % 1020,3 hPa 0,0 l/m 0,8 km/h (0 Bft) SW 223 10 min 0,000 mm 798 W/m 14,1 C 27,5 C 9,7 km/h (2 Bft) 97 %
18.05.2022 15:30 27,9 C 27,5 C 27,9 C 44 % 1020,1 hPa 0,0 l/m 0,0 km/h (0 Bft) S-SW 210 10 min 0,000 mm 791 W/m 14,5 C 27,9 C 1,6 km/h (1 Bft) 97 %
18.05.2022 15:40 28,2 C 27,9 C 28,3 C 45 % 1020,1 hPa 0,0 l/m 1,9 km/h (1 Bft) SO 138 10 min 0,000 mm 758 W/m 15,1 C 28,2 C 16,1 km/h (3 Bft) 98 %
18.05.2022 15:50 28,2 C 28,1 C 28,2 C 44 % 1019,9 hPa 0,0 l/m 0,1 km/h (0 Bft) O 94 10 min 0,000 mm 726 W/m 14,8 C 28,2 C 6,4 km/h (2 Bft) 97 %
18.05.2022 16:00 28,3 C 28,2 C 28,4 C 44 % 1019,8 hPa 0,0 l/m 1,2 km/h (1 Bft) O-SO 116 10 min 0,508 mm 737 W/m 14,9 C 28,3 C 8,0 km/h (2 Bft) 98 %
18.05.2022 16:10 28,0 C 28,0 C 28,3 C 45 % 1019,8 hPa 0,0 l/m 0,9 km/h (0 Bft) O-SO 107 10 min 0,000 mm 694 W/m 14,9 C 28,0 C 11,3 km/h (2 Bft) 97 %
18.05.2022 16:20 28,4 C 28,0 C 28,4 C 45 % 1019,8 hPa 0,0 l/m 0,2 km/h (0 Bft) W-NW 294 10 min 0,000 mm 691 W/m 15,3 C 28,4 C 3,2 km/h (1 Bft) 98 %
18.05.2022 16:30 28,7 C 28,4 C 28,8 C 43 % 1019,5 hPa 0,0 l/m 0,7 km/h (0 Bft) O-SO 117 10 min 0,000 mm 680 W/m 14,9 C 28,7 C 11,3 km/h (2 Bft) 97 %
18.05.2022 16:40 28,4 C 28,4 C 28,7 C 45 % 1019,6 hPa 0,0 l/m 1,0 km/h (0 Bft) S-SO 152 10 min 0,000 mm 654 W/m 15,3 C 28,4 C 12,9 km/h (3 Bft) 97 %
18.05.2022 16:50 28,4 C 28,4 C 28,5 C 49 % 1019,5 hPa 0,0 l/m 1,7 km/h (1 Bft) S-SO 149 10 min 0,000 mm 619 W/m 16,6 C 28,4 C 14,5 km/h (3 Bft) 100 %
18.05.2022 17:00 28,3 C 28,3 C 28,4 C 46 % 1019,5 hPa 0,0 l/m 1,5 km/h (1 Bft) O-SO 115 10 min 0,457 mm 570 W/m 15,6 C 28,3 C 14,5 km/h (3 Bft) 100 %
18.05.2022 17:10 28,3 C 28,3 C 28,3 C 44 % 1019,3 hPa 0,0 l/m 0,8 km/h (0 Bft) O-SO 117 10 min 0,000 mm 522 W/m 14,9 C 28,3 C 8,0 km/h (2 Bft) 100 %
18.05.2022 17:20 28,1 C 28,1 C 28,4 C 45 % 1019,3 hPa 0,0 l/m 2,7 km/h (1 Bft) O-SO 104 10 min 0,000 mm 496 W/m 15,0 C 28,1 C 11,3 km/h (2 Bft) 100 %
18.05.2022 17:30 27,9 C 27,9 C 28,1 C 48 % 1019,2 hPa 0,0 l/m 1,7 km/h (1 Bft) SO 135 10 min 0,000 mm 475 W/m 15,9 C 27,9 C 11,3 km/h (2 Bft) 100 %
18.05.2022 17:40 27,9 C 27,9 C 27,9 C 48 % 1019,3 hPa 0,0 l/m 0,3 km/h (0 Bft) O-SO 121 10 min 0,000 mm 429 W/m 15,9 C 27,9 C 4,8 km/h (1 Bft) 100 %
18.05.2022 17:50 28,0 C 27,9 C 28,0 C 46 % 1019,3 hPa 0,0 l/m 0,3 km/h (0 Bft) SO 144 10 min 0,000 mm 448 W/m 15,3 C 28,0 C 8,0 km/h (2 Bft) 100 %
18.05.2022 18:00 27,9 C 27,9 C 28,1 C 45 % 1019,3 hPa 0,0 l/m 0,8 km/h (0 Bft) O 86 10 min 0,330 mm 397 W/m 14,8 C 27,9 C 8,0 km/h (2 Bft) 100 %
18.05.2022 18:10 27,9 C 27,9 C 27,9 C 49 % 1019,3 hPa 0,0 l/m 0,5 km/h (0 Bft) O 93 10 min 0,000 mm 362 W/m 16,2 C 27,9 C 6,4 km/h (2 Bft) 100 %
18.05.2022 18:20 27,5 C 27,5 C 27,9 C 48 % 1019,3 hPa 0,0 l/m 1,9 km/h (1 Bft) O 84 10 min 0,000 mm 346 W/m 15,5 C 27,5 C 16,1 km/h (3 Bft) 100 %
18.05.2022 18:30 27,5 C 27,4 C 27,5 C 47 % 1019,3 hPa 0,0 l/m 0,3 km/h (0 Bft) O-SO 108 10 min 0,000 mm 353 W/m 15,2 C 27,5 C 6,4 km/h (2 Bft) 100 %
18.05.2022 18:40 27,4 C 27,4 C 27,5 C 46 % 1019,3 hPa 0,0 l/m 1,7 km/h (1 Bft) O-SO 114 10 min 0,000 mm 323 W/m 14,7 C 27,4 C 9,7 km/h (2 Bft) 100 %
18.05.2022 18:50 27,3 C 27,3 C 27,4 C 47 % 1019,2 hPa 0,0 l/m 0,3 km/h (0 Bft) O-SO 105 10 min 0,000 mm 292 W/m 15,0 C 27,3 C 6,4 km/h (2 Bft) 100 %
18.05.2022 19:00 27,4 C 27,3 C 27,4 C 46 % 1019,1 hPa 0,0 l/m 0,4 km/h (0 Bft) O-SO 112 10 min 0,229 mm 230 W/m 14,7 C 27,4 C 8,0 km/h (2 Bft) 100 %
18.05.2022 19:10 26,9 C 26,9 C 27,4 C 46 % 1019,0 hPa 0,0 l/m 0,6 km/h (0 Bft) O-NO 76 0 min 0,000 mm 60 W/m 14,3 C 26,9 C 8,0 km/h (2 Bft) 100 %
18.05.2022 19:20 26,4 C 26,4 C 26,9 C 48 % 1019,0 hPa 0,0 l/m 0,5 km/h (0 Bft) O 92 0 min 0,000 mm 58 W/m 14,5 C 26,4 C 8,0 km/h (2 Bft) 100 %
18.05.2022 19:30 25,9 C 25,9 C 26,4 C 48 % 1019,0 hPa 0,0 l/m 0,2 km/h (0 Bft) O-SO 102 0 min 0,000 mm 51 W/m 14,0 C 25,9 C 6,4 km/h (2 Bft) 100 %
18.05.2022 19:40 25,5 C 25,5 C 25,9 C 49 % 1019,1 hPa 0,0 l/m 0,3 km/h (0 Bft) O 91 0 min 0,000 mm 46 W/m 14,0 C 25,5 C 6,4 km/h (2 Bft) 99 %
18.05.2022 19:50 25,2 C 25,2 C 25,5 C 50 % 1019,1 hPa 0,0 l/m 0,2 km/h (0 Bft) O 82 0 min 0,000 mm 42 W/m 14,0 C 25,2 C 6,4 km/h (2 Bft) 100 %
18.05.2022 20:00 24,8 C 24,8 C 25,2 C 51 % 1019,1 hPa 0,0 l/m 0,0 km/h (0 Bft) SO 132 0 min 0,000 mm 32 W/m 14,0 C 24,8 C 4,8 km/h (1 Bft) 100 %
18.05.2022 20:10 24,5 C 24,5 C 24,8 C 51 % 1019,1 hPa 0,0 l/m 0,0 km/h (0 Bft) SO 130 0 min 0,051 mm 30 W/m 13,7 C 24,5 C 0,0 km/h (0 Bft) 100 %
18.05.2022 20:20 24,2 C 24,2 C 24,5 C 51 % 1019,1 hPa 0,0 l/m 0,0 km/h (0 Bft) O-SO 119 0 min 0,000 mm 25 W/m 13,4 C 24,2 C 0,0 km/h (0 Bft) 100 %
18.05.2022 20:30 23,9 C 23,9 C 24,2 C 51 % 1019,2 hPa 0,0 l/m 0,0 km/h (0 Bft) O 101 0 min 0,000 mm 18 W/m 13,1 C 23,9 C 1,6 km/h (1 Bft) 100 %
18.05.2022 20:40 23,6 C 23,6 C 23,9 C 53 % 1019,0 hPa 0,0 l/m 0,0 km/h (0 Bft) O 98 0 min 0,000 mm 11 W/m 13,4 C 23,6 C 1,6 km/h (1 Bft) 100 %
18.05.2022 20:50 23,2 C 23,2 C 23,6 C 53 % 1019,1 hPa 0,0 l/m 0,0 km/h (0 Bft) O-SO 102 0 min 0,000 mm 5 W/m 13,1 C 23,2 C 1,6 km/h (1 Bft) 100 %
18.05.2022 21:00 22,8 C 22,8 C 23,2 C 53 % 1019,1 hPa 0,0 l/m 0,1 km/h (0 Bft) O-SO 103 0 min 0,025 mm 0 W/m 12,7 C 22,8 C 6,4 km/h (2 Bft) 100 %
18.05.2022 21:10 22,6 C 22,6 C 22,8 C 56 % 1019,2 hPa 0,0 l/m 0,0 km/h (0 Bft) O 90 0 min 0,000 mm 0 W/m 13,4 C 22,6 C 1,6 km/h (1 Bft) 100 %
18.05.2022 21:20 22,2 C 22,2 C 22,6 C 56 % 1019,2 hPa 0,0 l/m 0,0 km/h (0 Bft) O-SO 112 0 min 0,000 mm 0 W/m 13,0 C 22,2 C 1,6 km/h (1 Bft) 100 %
18.05.2022 21:30 21,9 C 21,9 C 22,2 C 56 % 1019,5 hPa 0,0 l/m 0,0 km/h (0 Bft) O-SO 112 0 min 0,000 mm 0 W/m 12,7 C 21,9 C 4,8 km/h (1 Bft) 100 %
18.05.2022 21:40 21,8 C 21,8 C 21,9 C 57 % 1019,4 hPa 0,0 l/m 0,0 km/h (0 Bft) O 90 0 min 0,000 mm 0 W/m 12,9 C 21,8 C 4,8 km/h (1 Bft) 100 %
18.05.2022 21:50 21,6 C 21,6 C 21,8 C 57 % 1019,5 hPa 0,0 l/m 0,0 km/h (0 Bft) O 90 0 min 0,000 mm 0 W/m 12,7 C 21,6 C 4,8 km/h (1 Bft) 100 %
18.05.2022 22:00 21,4 C 21,4 C 21,6 C 58 % 1019,6 hPa 0,0 l/m 0,0 km/h (0 Bft) N 0 0 min 0,000 mm 0 W/m 12,8 C 21,4 C 0,0 km/h (0 Bft) 100 %
18.05.2022 22:10 21,2 C 21,2 C 21,4 C 59 % 1019,5 hPa 0,0 l/m 0,0 km/h (0 Bft) O 90 0 min 0,000 mm 0 W/m 12,9 C 21,2 C 8,0 km/h (2 Bft) 100 %
18.05.2022 22:20 21,1 C 21,1 C 21,2 C 59 % 1019,4 hPa 0,0 l/m 0,0 km/h (0 Bft) O-SO 112 0 min 0,000 mm 0 W/m 12,8 C 21,1 C 8,0 km/h (2 Bft) 100 %
18.05.2022 22:30 21,1 C 21,1 C 21,2 C 60 % 1019,5 hPa 0,0 l/m 0,0 km/h (0 Bft) O-SO 112 0 min 0,000 mm 0 W/m 13,0 C 21,1 C 11,3 km/h (2 Bft) 100 %
18.05.2022 22:40 20,9 C 20,9 C 21,1 C 60 % 1019,5 hPa 0,0 l/m 0,0 km/h (0 Bft) O 90 0 min 0,000 mm 0 W/m 12,8 C 20,9 C 6,4 km/h (2 Bft) 100 %
18.05.2022 22:50 20,8 C 20,8 C 20,9 C 61 % 1019,5 hPa 0,0 l/m 0,0 km/h (0 Bft) O-SO 112 0 min 0,000 mm 0 W/m 13,0 C 20,8 C 1,6 km/h (1 Bft) 100 %
18.05.2022 23:00 20,6 C 20,6 C 20,8 C 63 % 1019,5 hPa 0,0 l/m 0,0 km/h (0 Bft) O-NO 67 0 min 0,051 mm 0 W/m 13,3 C 20,6 C 4,8 km/h (1 Bft) 100 %
18.05.2022 23:10 20,4 C 20,4 C 20,6 C 62 % 1019,5 hPa 0,0 l/m 0,0 km/h (0 Bft) O 90 0 min 0,000 mm 0 W/m 12,9 C 20,4 C 8,0 km/h (2 Bft) 100 %
18.05.2022 23:20 20,4 C 20,4 C 20,4 C 63 % 1019,5 hPa 0,0 l/m 0,0 km/h (0 Bft) SO 135 0 min 0,000 mm 0 W/m 13,1 C 20,4 C 9,7 km/h (2 Bft) 100 %
18.05.2022 23:30 20,2 C 20,2 C 20,4 C 63 % 1019,5 hPa 0,0 l/m 0,0 km/h (0 Bft) O 90 0 min 0,000 mm 0 W/m 12,9 C 20,2 C 1,6 km/h (1 Bft) 100 %
18.05.2022 23:40 20,1 C 20,1 C 20,2 C 64 % 1019,7 hPa 0,0 l/m 0,0 km/h (0 Bft) O-SO 112 0 min 0,000 mm 0 W/m 13,1 C 20,1 C 4,8 km/h (1 Bft) 100 %
18.05.2022 23:50 19,8 C 19,8 C 20,1 C 65 % 1019,7 hPa 0,0 l/m 0,0 km/h (0 Bft) O 90 0 min 0,000 mm 0 W/m 13,0 C 19,8 C 4,8 km/h (1 Bft) 100 %
_ Min-Zeit 06:20 06:20 06:10 16:30 19:10 - 00:00 - - - - - 06:20 06:00 00:10 04:50
Minimum _ 11,1 C 11,1 C 11,2 C 43 % 1019,0 hPa - 0,0 km/h (0 Bft) - - - - - 9,7 C 11,2 C 0,0 km/h (0 Bft) 87 %
_ Max-Zeit 16:30 16:30 16:30 04:00 08:50 00:00 01:50 - - 12:40 14:00 13:30 16:50 16:30 15:10 00:00
Maximum _ 28,8 C 28,4 C 28,8 C 91 % 1021,9 hPa 0,0 l/m 3,2 km/h
NW (1 Bft)
- - 20 min 0,584 mm 911 W/m 16,6 C 28,7 C 17,7 km/h
S-SO (3 Bft)
100 %
Durchschnitt _ 20,1 C 20,0 C 20,2 C 67 % 1020,3 hPa #0,0 l/m 0,7 km/h (0 Bft) NW - #10:50 h #4,699 mm 475 W/m 13,1 C 20,1 C 5,4 km/h (1 Bft) 99 %
PRIVATE WETTERSTATION BILLIGHEIM-ALLFELD - www.neckar-odenwald-wetter.de - Holger Sonntag